Time;durP1;ratioP1;P1;durP2;ratioP2;P2;SDS_P1;SDS_P2;PMS_P1;PMS_P2;Temp;Humidity;BMP_temperature;BMP_pressure;BME280_temperature;BME280_humidity;BME280_pressure;Samples;Min_cycle;Max_cycle;Signal;HPM_P1;HPM_P2
2023/06/25 00:00:56;;;;;;;12.70;9.63;;;;;;;22.01;93.61;100488.34;4728351;28;10000240;-70
2023/06/25 00:03:23;;;;;;;11.38;9.48;;;;;;;22.00;93.76;100494.88;5077342;28;20076;-69
2023/06/25 00:05:48;;;;;;;11.82;9.52;;;;;;;21.97;94.12;100500.75;5084392;28;20024;-70
2023/06/25 00:08:13;;;;;;;11.18;9.43;;;;;;;21.90;93.83;100500.69;5075677;28;20024;-69
2023/06/25 00:10:39;;;;;;;14.02;9.82;;;;;;;21.86;94.07;100495.88;5072742;28;20121;-71
2023/06/25 00:13:04;;;;;;;12.35;9.05;;;;;;;21.84;94.08;100506.16;5064764;28;20040;-68
2023/06/25 00:15:30;;;;;;;9.88;8.75;;;;;;;21.74;94.28;100495.56;5065049;28;20103;-69
2023/06/25 00:17:56;;;;;;;9.93;8.25;;;;;;;21.78;93.90;100498.75;5069535;28;20476;-69
2023/06/25 00:20:25;;;;;;;13.82;10.10;;;;;;;21.69;93.52;100494.47;5051024;28;20024;-69
2023/06/25 00:22:50;;;;;;;13.43;8.63;;;;;;;21.73;93.03;100501.28;5072205;28;20036;-68
2023/06/25 00:25:17;;;;;;;9.55;8.23;;;;;;;21.68;92.70;100499.09;5078086;28;20051;-69
2023/06/25 00:27:47;;;;;;;11.48;8.82;;;;;;;21.67;92.61;100500.13;5074343;28;20387;-70
2023/06/25 00:30:16;;;;;;;13.07;9.18;;;;;;;21.65;92.87;100495.94;5073727;28;20024;-70
2023/06/25 00:32:44;;;;;;;11.60;9.15;;;;;;;21.64;93.00;100495.06;5068394;28;20499;-69
2023/06/25 00:35:11;;;;;;;11.63;8.35;;;;;;;21.53;93.02;100482.00;5078336;28;20032;-67
2023/06/25 00:37:38;;;;;;;10.57;9.18;;;;;;;21.58;93.14;100505.97;5078505;28;20024;-68
2023/06/25 00:40:07;;;;;;;10.60;8.70;;;;;;;21.55;92.98;100501.75;5076977;28;20157;-68
2023/06/25 00:42:42;;;;;;;10.93;7.97;;;;;;;21.50;92.56;100504.25;5075465;28;20020;-69
2023/06/25 00:45:11;;;;;;;9.10;7.45;;;;;;;21.46;92.24;100502.97;5084451;28;20015;-70
2023/06/25 00:47:38;;;;;;;9.15;7.63;;;;;;;21.44;91.69;100493.28;5094337;28;20550;-69
2023/06/25 00:50:05;;;;;;;11.05;7.53;;;;;;;21.41;91.20;100497.25;5091195;28;20036;-68
2023/06/25 00:52:31;;;;;;;11.02;8.50;;;;;;;21.29;90.42;100482.50;5089354;28;20020;-69
2023/06/25 00:54:56;;;;;;;8.60;7.38;;;;;;;21.31;89.90;100476.84;5096030;28;20047;-70
2023/06/25 00:57:22;;;;;;;11.50;7.30;;;;;;;21.38;89.77;100494.09;5103974;28;20526;-69
2023/06/25 00:59:48;;;;;;;9.60;6.97;;;;;;;21.39;89.54;100484.84;5088317;28;20038;-69
2023/06/25 01:02:28;;;;;;;10.82;7.03;;;;;;;21.24;88.87;100460.41;5099103;28;20044;-69
2023/06/25 01:05:11;;;;;;;8.40;6.93;;;;;;;21.23;88.71;100456.00;5084617;28;20040;-70
2023/06/25 01:07:37;;;;;;;12.85;7.68;;;;;;;21.30;88.45;100475.13;5089970;28;20020;-68
2023/06/25 01:10:04;;;;;;;10.30;7.80;;;;;;;21.15;88.33;100453.41;5082606;28;20048;-68
2023/06/25 01:12:29;;;;;;;10.63;7.68;;;;;;;21.24;88.44;100475.91;5099941;28;20016;-68
2023/06/25 01:14:57;;;;;;;9.52;7.68;;;;;;;21.13;88.59;100473.75;5097517;28;20039;-68
2023/06/25 01:17:22;;;;;;;9.68;7.57;;;;;;;21.06;88.95;100467.41;5095262;28;20008;-69
2023/06/25 01:19:48;;;;;;;9.55;7.40;;;;;;;21.06;89.11;100476.44;5085042;28;20007;-68
2023/06/25 01:22:15;;;;;;;9.20;7.35;;;;;;;20.98;89.24;100470.28;5087774;28;20016;-67
2023/06/25 01:24:44;;;;;;;8.63;7.25;;;;;;;21.05;89.43;100490.28;5092305;28;20044;-68
2023/06/25 01:27:10;;;;;;;11.65;8.70;;;;;;;21.02;89.90;100482.50;5099641;28;20506;-69
2023/06/25 01:29:38;;;;;;;9.30;7.40;;;;;;;20.93;90.15;100476.28;5100472;28;20095;-69
2023/06/25 01:32:08;;;;;;;9.40;7.70;;;;;;;20.98;90.38;100490.22;5097801;28;20092;-69
2023/06/25 01:34:33;;;;;;;10.88;7.43;;;;;;;20.98;90.61;100481.19;5091553;28;20044;-69
2023/06/25 01:36:58;;;;;;;12.00;7.75;;;;;;;20.94;90.91;100477.16;5101354;28;20027;-69
2023/06/25 01:39:24;;;;;;;11.38;7.30;;;;;;;20.93;91.03;100476.28;5081987;28;20119;-69
2023/06/25 01:41:50;;;;;;;10.05;7.75;;;;;;;20.92;91.29;100466.41;5086231;28;20020;-68
2023/06/25 01:44:23;;;;;;;10.27;7.35;;;;;;;20.89;91.22;100460.53;5078786;28;20039;-69
2023/06/25 01:46:48;;;;;;;10.85;8.05;;;;;;;20.91;91.45;100462.00;5080535;28;20024;-68
2023/06/25 01:49:14;;;;;;;10.60;8.38;;;;;;;20.91;91.43;100470.19;5081626;28;20030;-69
2023/06/25 01:51:39;;;;;;;10.43;7.65;;;;;;;20.86;91.55;100450.84;5086983;28;20039;-69
2023/06/25 01:54:05;;;;;;;9.90;7.38;;;;;;;20.95;91.52;100460.59;5074587;28;20082;-69
2023/06/25 01:56:30;;;;;;;11.00;8.20;;;;;;;20.94;91.65;100461.66;5080115;28;20044;-68
2023/06/25 01:58:55;;;;;;;10.02;7.53;;;;;;;20.94;91.68;100461.66;5086922;28;20046;-69
2023/06/25 02:01:21;;;;;;;11.32;7.85;;;;;;;20.84;91.67;100446.63;5069939;28;20023;-68
2023/06/25 02:03:49;;;;;;;13.27;8.63;;;;;;;20.80;91.98;100439.91;5067189;28;20527;-69
2023/06/25 02:06:15;;;;;;;12.13;7.85;;;;;;;20.89;92.12;100458.63;5073052;28;20028;-69
2023/06/25 02:08:41;;;;;;;10.40;7.70;;;;;;;20.91;92.18;100461.16;5086573;28;20031;-68
2023/06/25 02:11:07;;;;;;;10.00;8.38;;;;;;;20.88;92.23;100456.09;5086328;28;20529;-68
2023/06/25 02:13:34;;;;;;;9.43;7.78;;;;;;;20.85;92.21;100453.78;5069313;28;20564;-69
2023/06/25 02:16:00;;;;;;;12.45;7.95;;;;;;;20.94;91.93;100464.38;5070989;28;20103;-68
2023/06/25 02:18:25;;;;;;;9.07;7.80;;;;;;;20.96;91.99;100470.47;5072276;28;20028;-69
2023/06/25 02:20:51;;;;;;;10.02;7.40;;;;;;;20.99;92.01;100485.63;5077020;28;20032;-68
2023/06/25 02:23:16;;;;;;;12.73;7.97;;;;;;;20.95;91.96;100479.69;5068851;28;20020;-70
2023/06/25 02:25:42;;;;;;;9.35;8.18;;;;;;;20.95;91.86;100481.56;5083164;28;20054;-69
2023/06/25 02:28:07;;;;;;;10.77;7.78;;;;;;;20.94;92.06;100477.16;5073346;28;20047;-68
2023/06/25 02:30:33;;;;;;;11.93;7.80;;;;;;;20.87;92.06;100462.59;5065519;28;20033;-68
2023/06/25 02:32:58;;;;;;;9.90;7.72;;;;;;;20.96;92.05;100477.81;5079881;28;20028;-69
2023/06/25 02:35:23;;;;;;;11.13;8.18;;;;;;;20.82;91.86;100465.91;5071054;28;20035;-69
2023/06/25 02:37:49;;;;;;;11.55;8.07;;;;;;;20.91;92.19;100480.25;5076344;28;20028;-70
2023/06/25 02:40:14;;;;;;;10.05;7.57;;;;;;;20.89;92.32;100468.72;5073359;28;20067;-68
2023/06/25 02:42:40;;;;;;;9.00;7.60;;;;;;;20.89;92.42;100466.00;5076693;28;20040;-69
2023/06/25 02:45:06;;;;;;;10.43;7.68;;;;;;;20.91;92.44;100472.06;5066489;28;20039;-68
2023/06/25 02:47:31;;;;;;;12.07;7.45;;;;;;;20.89;92.44;100466.81;5080314;28;20043;-69
2023/06/25 02:49:57;;;;;;;8.93;7.18;;;;;;;20.88;92.31;100477.91;5071436;28;20045;-68
2023/06/25 02:52:22;;;;;;;12.35;7.20;;;;;;;20.87;92.44;100465.34;5078146;28;20028;-69
2023/06/25 02:54:48;;;;;;;10.85;7.43;;;;;;;20.86;92.47;100472.66;5080985;28;20028;-69
2023/06/25 02:57:13;;;;;;;8.70;7.18;;;;;;;20.86;92.47;100472.66;5070069;28;20028;-69
2023/06/25 02:59:38;;;;;;;8.73;7.43;;;;;;;20.86;92.48;100467.22;5082284;28;20028;-68
2023/06/25 03:02:04;;;;;;;10.45;8.20;;;;;;;20.74;92.53;100441.53;5085218;28;20493;-69
2023/06/25 03:04:30;;;;;;;8.57;7.30;;;;;;;20.84;92.40;100460.28;5085406;28;20039;-68
2023/06/25 03:06:55;;;;;;;9.00;7.00;;;;;;;20.90;92.23;100473.13;5083014;28;20082;-69
2023/06/25 03:09:20;;;;;;;10.00;6.68;;;;;;;20.92;92.13;100473.78;5082906;28;20065;-69
2023/06/25 03:11:46;;;;;;;8.77;6.68;;;;;;;20.91;92.38;100470.19;5075826;28;20035;-69
2023/06/25 03:14:11;;;;;;;7.55;6.75;;;;;;;20.90;92.27;100467.66;5065802;28;20028;-69
2023/06/25 03:16:37;;;;;;;9.90;7.30;;;;;;;20.91;92.25;100466.63;5076233;28;20028;-68
2023/06/25 03:19:02;;;;;;;9.93;7.57;;;;;;;20.91;92.28;100470.19;5073032;28;20036;-69
2023/06/25 03:21:28;;;;;;;11.20;6.93;;;;;;;20.92;92.22;100468.31;5078618;28;20081;-69
2023/06/25 03:23:53;;;;;;;8.45;7.22;;;;;;;20.88;92.27;100465.13;5072262;28;20039;-69
2023/06/25 03:26:19;;;;;;;12.65;7.72;;;;;;;20.93;92.35;100476.28;5071990;28;20487;-69
2023/06/25 03:28:44;;;;;;;7.85;6.72;;;;;;;20.93;92.22;100472.72;5083202;28;20026;-68
2023/06/25 03:31:10;;;;;;;11.18;7.13;;;;;;;20.80;92.46;100456.25;5048027;28;20020;-69
2023/06/25 03:33:35;;;;;;;10.45;6.32;;;;;;;20.95;92.58;100474.25;5047408;28;20063;-69
2023/06/25 03:36:01;;;;;;;10.18;7.55;;;;;;;20.97;92.67;100480.34;5075593;28;20376;-69
2023/06/25 03:38:26;;;;;;;8.93;7.38;;;;;;;20.97;92.89;100483.09;5081307;28;20062;-68
2023/06/25 03:40:52;;;;;;;9.57;7.00;;;;;;;20.92;92.90;100462.88;5076199;28;20020;-69
2023/06/25 03:43:17;;;;;;;8.85;7.32;;;;;;;20.92;93.19;100471.06;5078126;28;20117;-68
2023/06/25 03:45:43;;;;;;;9.25;7.43;;;;;;;20.89;93.19;100463.25;5075592;28;20105;-70
2023/06/25 03:48:08;;;;;;;8.25;6.65;;;;;;;20.98;93.12;100481.19;5072482;28;20044;-69
2023/06/25 03:50:33;;;;;;;9.50;7.22;;;;;;;20.99;93.13;100478.25;5070453;28;20038;-69
2023/06/25 03:53:00;;;;;;;8.70;6.70;;;;;;;21.00;93.63;100490.00;5079951;28;20059;-69
2023/06/25 03:55:29;;;;;;;9.98;7.40;;;;;;;20.95;93.83;100481.56;5077075;28;20046;-70
2023/06/25 03:57:56;;;;;;;10.95;7.55;;;;;;;20.95;93.74;100484.28;5071175;28;20474;-68
2023/06/25 04:00:22;;;;;;;9.98;7.22;;;;;;;20.95;93.48;100490.59;5076118;28;20103;-68
2023/06/25 04:02:47;;;;;;;8.15;6.30;;;;;;;20.92;93.57;100495.59;5069414;28;20119;-68
2023/06/25 04:05:13;;;;;;;9.75;7.30;;;;;;;20.91;93.99;100494.75;5074332;28;20044;-69
2023/06/25 04:07:38;;;;;;;11.35;6.70;;;;;;;20.82;94.23;100485.00;5074083;28;21056;-68
2023/06/25 04:10:04;;;;;;;8.82;6.60;;;;;;;20.90;94.46;100501.25;5074173;28;20047;-69
2023/06/25 04:12:29;;;;;;;9.90;6.60;;;;;;;20.91;94.51;100502.91;5077459;28;20037;-70
2023/06/25 04:14:55;;;;;;;9.27;6.50;;;;;;;20.95;94.75;100506.13;5078816;28;20032;-68
2023/06/25 04:17:20;;;;;;;8.43;6.55;;;;;;;20.93;94.69;100495.38;5074712;28;20043;-69
2023/06/25 04:19:46;;;;;;;9.90;6.95;;;;;;;20.84;95.07;100493.00;5072191;28;20020;-68
2023/06/25 04:22:11;;;;;;;10.80;7.03;;;;;;;20.88;95.01;100497.00;5078782;28;20048;-69
2023/06/25 04:24:37;;;;;;;8.32;6.93;;;;;;;20.91;95.12;100496.63;5078003;28;20434;-68
2023/06/25 04:27:04;;;;;;;9.00;6.45;;;;;;;20.87;95.30;100489.88;5077943;28;20090;-68
2023/06/25 04:29:29;;;;;;;9.65;6.40;;;;;;;20.92;95.29;100501.88;5078691;28;20532;-69
2023/06/25 04:31:55;;;;;;;9.18;6.78;;;;;;;20.93;95.33;100500.00;5077384;28;20020;-68
2023/06/25 04:34:21;;;;;;;9.85;6.72;;;;;;;20.93;95.46;100502.72;5077180;28;20467;-69
2023/06/25 04:36:46;;;;;;;8.55;6.68;;;;;;;20.77;95.40;100473.88;5057047;28;20040;-69
2023/06/25 04:39:11;;;;;;;7.88;6.28;;;;;;;20.79;95.62;100481.84;5082352;28;20162;-69
2023/06/25 04:41:37;;;;;;;8.48;6.70;;;;;;;20.91;95.82;100502.06;5079308;28;20031;-68
2023/06/25 04:44:02;;;;;;;9.00;6.13;;;;;;;20.95;95.78;100497.94;5083769;28;20119;-69
2023/06/25 04:46:28;;;;;;;8.77;6.55;;;;;;;20.96;95.91;100500.47;5072989;28;20070;-69
2023/06/25 04:48:53;;;;;;;9.23;6.30;;;;;;;20.96;96.11;100494.19;5074942;28;20043;-69
2023/06/25 04:51:19;;;;;;;7.53;5.95;;;;;;;20.96;95.82;100497.72;5059690;28;20039;-69
2023/06/25 04:53:44;;;;;;;7.60;5.90;;;;;;;20.97;95.71;100494.00;5076287;28;20019;-68
2023/06/25 04:56:09;;;;;;;7.78;6.18;;;;;;;20.95;95.67;100487.03;5077699;28;20036;-69
2023/06/25 04:58:35;;;;;;;7.95;6.05;;;;;;;20.97;95.92;100484.97;5074999;28;20032;-69
2023/06/25 05:01:02;;;;;;;8.48;6.47;;;;;;;20.96;95.67;100489.56;5074457;28;20051;-68
2023/06/25 05:03:28;;;;;;;9.55;6.18;;;;;;;20.96;95.74;100492.28;5069876;28;20103;-68
2023/06/25 05:05:54;;;;;;;8.95;6.07;;;;;;;20.96;95.59;100486.81;5067597;28;20523;-69
2023/06/25 05:08:20;;;;;;;7.63;5.45;;;;;;;20.97;95.68;100483.09;5073800;28;20066;-67
2023/06/25 05:10:45;;;;;;;7.07;5.70;;;;;;;21.00;95.88;100490.88;5084749;28;20080;-68
2023/06/25 05:13:11;;;;;;;8.20;5.57;;;;;;;20.92;95.96;100480.06;5077223;28;20029;-69
2023/06/25 05:15:39;;;;;;;8.23;6.07;;;;;;;20.98;96.43;100489.34;5078307;28;20051;-69
2023/06/25 05:18:05;;;;;;;6.47;5.68;;;;;;;21.00;97.20;100492.75;5049452;28;20028;-69
2023/06/25 05:20:35;;;;;;;7.53;5.70;;;;;;;21.05;97.62;100496.56;5077905;28;20035;-69
2023/06/25 05:23:04;;;;;;;7.68;6.07;;;;;;;21.08;98.45;100498.91;5064789;28;21232;-69
2023/06/25 05:25:33;;;;;;;8.90;6.00;;;;;;;21.10;99.70;100499.56;5075394;28;20048;-68
2023/06/25 05:28:01;;;;;;;8.63;6.30;;;;;;;21.01;100.00;100486.25;5077940;28;20556;-68
2023/06/25 05:30:27;;;;;;;7.57;5.53;;;;;;;21.07;100.00;100501.81;5080797;28;20112;-70
2023/06/25 05:32:52;;;;;;;13.02;6.28;;;;;;;21.06;100.00;100503.72;5076344;28;20040;-70
2023/06/25 05:35:17;;;;;;;8.23;5.50;;;;;;;21.05;100.00;100493.84;5073160;28;20032;-69
2023/06/25 05:37:43;;;;;;;8.93;5.95;;;;;;;21.05;100.00;100493.84;5072821;28;20051;-68
2023/06/25 05:40:09;;;;;;;9.73;6.60;;;;;;;21.07;100.00;100507.28;5077587;28;20023;-69
2023/06/25 05:42:34;;;;;;;7.97;6.30;;;;;;;21.09;100.00;100503.31;5070079;28;20086;-69
2023/06/25 05:45:00;;;;;;;6.95;5.45;;;;;;;21.10;100.00;100509.59;5079265;28;20048;-69
2023/06/25 05:47:25;;;;;;;9.35;6.20;;;;;;;21.09;100.00;100511.47;5067026;28;20198;-69
2023/06/25 05:49:51;;;;;;;9.48;6.80;;;;;;;21.09;100.00;100507.94;5073983;28;20499;-69
2023/06/25 05:52:16;;;;;;;9.00;5.85;;;;;;;21.06;100.00;100503.72;5077998;28;20039;-69
2023/06/25 05:54:41;;;;;;;6.70;5.72;;;;;;;21.04;100.00;100516.69;5058158;28;20712;-69
2023/06/25 05:57:07;;;;;;;7.75;5.57;;;;;;;21.06;100.00;100516.50;5084171;28;20076;-69
2023/06/25 05:59:32;;;;;;;10.10;6.10;;;;;;;21.03;100.00;100506.00;5079316;28;20795;-69
2023/06/25 06:01:58;;;;;;;9.55;5.82;;;;;;;21.04;100.00;100510.41;5065988;28;20032;-70
2023/06/25 06:04:23;;;;;;;9.10;5.95;;;;;;;20.96;100.00;100505.91;5049122;28;20040;-69
2023/06/25 06:06:49;;;;;;;9.43;6.50;;;;;;;20.99;100.00;100510.97;5072374;28;20034;-69
2023/06/25 06:09:14;;;;;;;7.38;6.10;;;;;;;20.91;100.00;100496.63;5078328;28;20096;-69
2023/06/25 06:11:39;;;;;;;8.75;6.03;;;;;;;21.02;100.00;100524.22;5070026;28;20078;-69
2023/06/25 06:14:06;;;;;;;8.20;5.97;;;;;;;21.03;100.00;100523.22;5064840;28;20085;-69
2023/06/25 06:16:31;;;;;;;8.40;6.07;;;;;;;21.02;100.00;100526.97;5080851;28;20024;-70
2023/06/25 06:18:57;;;;;;;11.02;6.38;;;;;;;21.01;100.00;100518.97;5076163;28;20369;-68
2023/06/25 06:21:22;;;;;;;9.68;6.30;;;;;;;21.00;100.00;100522.75;5063612;28;20048;-68
2023/06/25 06:23:48;;;;;;;7.40;6.28;;;;;;;20.98;100.00;100530.28;5081200;28;20028;-70
2023/06/25 06:26:13;;;;;;;10.65;6.97;;;;;;;20.97;100.00;100523.13;5081954;28;20050;-69
2023/06/25 06:28:39;;;;;;;10.05;6.22;;;;;;;20.93;100.00;100522.63;5085124;28;20035;-70
2023/06/25 06:31:04;;;;;;;7.57;6.20;;;;;;;20.90;100.00;100523.06;5065748;28;20376;-69
2023/06/25 06:33:31;;;;;;;9.65;7.05;;;;;;;20.87;100.00;100526.19;5084645;28;20379;-69
2023/06/25 06:35:56;;;;;;;10.27;6.28;;;;;;;20.85;100.00;100519.22;5052958;28;20032;-69
2023/06/25 06:38:22;;;;;;;9.20;6.70;;;;;;;20.83;100.00;100524.84;5065149;28;20031;-70
2023/06/25 06:40:48;;;;;;;12.70;6.63;;;;;;;20.86;100.00;100527.19;5066916;28;20048;-69
2023/06/25 06:43:13;;;;;;;9.85;6.90;;;;;;;20.82;100.00;100530.50;5080353;28;20038;-70
2023/06/25 06:45:38;;;;;;;10.60;7.85;;;;;;;20.74;100.00;100517.88;5079664;28;20534;-69
2023/06/25 06:48:05;;;;;;;9.95;6.80;;;;;;;20.82;100.00;100527.78;5064391;28;20536;-70
2023/06/25 06:50:30;;;;;;;10.00;6.95;;;;;;;20.81;100.00;100528.81;5064559;28;20035;-69
2023/06/25 06:52:56;;;;;;;10.25;6.35;;;;;;;20.81;100.00;100526.09;5075218;28;20023;-70
2023/06/25 06:55:21;;;;;;;14.10;7.68;;;;;;;20.68;100.00;100509.63;5072812;28;20489;-70
2023/06/25 06:57:47;;;;;;;9.25;7.47;;;;;;;20.77;100.00;100522.94;5067974;28;20052;-70
2023/06/25 07:00:13;;;;;;;9.52;6.75;;;;;;;20.78;100.00;100526.50;5069794;28;20099;-70
2023/06/25 07:02:38;;;;;;;9.88;7.38;;;;;;;20.66;100.00;100504.34;5067410;28;20040;-70
2023/06/25 07:05:05;;;;;;;8.93;7.03;;;;;;;20.78;100.00;100524.63;5071663;28;20079;-70
2023/06/25 07:07:31;;;;;;;8.98;7.30;;;;;;;20.80;100.00;100521.69;5076466;28;20433;-70
2023/06/25 07:09:56;;;;;;;10.63;7.28;;;;;;;20.81;100.00;100523.38;5077697;28;20103;-69
2023/06/25 07:12:22;;;;;;;11.00;7.18;;;;;;;20.83;100.00;100524.03;5078652;28;20443;-69
2023/06/25 07:14:48;;;;;;;9.85;7.25;;;;;;;20.80;100.00;100517.06;5072895;28;20027;-68
2023/06/25 07:17:13;;;;;;;9.68;7.57;;;;;;;20.87;100.00;100525.31;5070482;28;20171;-69
2023/06/25 07:19:42;;;;;;;12.10;7.53;;;;;;;20.88;100.00;100518.81;5073576;28;20103;-69
2023/06/25 07:22:07;;;;;;;12.88;7.15;;;;;;;20.87;100.00;100511.69;5066988;28;20051;-69
2023/06/25 07:24:33;;;;;;;8.40;7.47;;;;;;;20.91;100.00;100523.88;5079094;28;20044;-70
2023/06/25 07:26:58;;;;;;;11.10;7.60;;;;;;;20.90;100.00;100509.44;5082264;28;20081;-68
2023/06/25 07:29:23;;;;;;;12.68;7.32;;;;;;;20.93;100.00;100516.34;5080245;28;20024;-70
2023/06/25 07:31:49;;;;;;;7.45;6.57;;;;;;;20.90;100.00;100514.88;5071729;28;20032;-69
2023/06/25 07:34:15;;;;;;;8.90;6.60;;;;;;;20.84;100.00;100495.72;5070856;28;20051;-70
2023/06/25 07:36:40;;;;;;;10.85;6.97;;;;;;;20.98;100.00;100514.75;5082427;28;20059;-70
2023/06/25 07:39:06;;;;;;;11.13;6.45;;;;;;;21.04;100.00;100515.84;5084127;28;20051;-69
2023/06/25 07:41:31;;;;;;;11.73;7.43;;;;;;;20.99;100.00;100500.06;5064843;28;20066;-70
2023/06/25 07:43:57;;;;;;;8.32;6.88;;;;;;;21.14;100.00;100519.06;5067184;28;20073;-70
2023/06/25 07:46:23;;;;;;;10.70;6.50;;;;;;;21.15;100.00;100516.16;5079312;28;20016;-70
2023/06/25 07:48:49;;;;;;;8.73;6.53;;;;;;;21.08;100.00;100498.91;5084100;28;20071;-69
2023/06/25 07:51:14;;;;;;;8.18;6.28;;;;;;;21.20;100.00;100507.38;5070744;28;20457;-68
2023/06/25 07:53:40;;;;;;;6.30;5.68;;;;;;;21.23;100.00;100510.56;5059070;28;20039;-70
2023/06/25 07:56:05;;;;;;;8.02;6.32;;;;;;;21.26;100.00;100506.59;5069585;28;20387;-70
2023/06/25 07:58:31;;;;;;;7.53;6.15;;;;;;;21.29;100.00;100506.19;5071324;28;20032;-69
2023/06/25 08:00:56;;;;;;;7.68;5.53;;;;;;;21.31;100.00;100509.59;5084781;28;20028;-70
2023/06/25 08:03:22;;;;;;;10.38;6.40;;;;;;;21.32;100.00;100505.78;5082735;28;20031;-69
2023/06/25 08:05:48;;;;;;;6.72;6.03;;;;;;;21.27;99.95;100490.03;5080174;28;20121;-70
2023/06/25 08:08:13;;;;;;;7.95;5.97;;;;;;;21.38;99.55;100496.81;5074767;28;20040;-71
2023/06/25 08:10:39;;;;;;;8.60;5.45;;;;;;;21.44;98.97;100501.47;5063804;28;20120;-70
2023/06/25 08:13:04;;;;;;;9.98;5.38;;;;;;;21.30;97.84;100469.66;5079549;28;20096;-70
2023/06/25 08:15:29;;;;;;;5.68;4.97;;;;;;;21.51;96.33;100502.34;5083859;28;20024;-70
2023/06/25 08:17:55;;;;;;;8.23;5.07;;;;;;;21.53;94.53;100498.38;5084453;28;20024;-69
2023/06/25 08:20:20;;;;;;;8.15;5.13;;;;;;;21.53;92.48;100490.19;5068857;28;20123;-69
2023/06/25 08:22:46;;;;;;;7.43;4.85;;;;;;;21.51;90.38;100494.16;5079845;28;20052;-69
2023/06/25 08:25:23;;;;;;;7.35;4.93;;;;;;;21.60;91.16;100484.78;5073166;28;20044;-69
2023/06/25 08:27:50;;;;;;;6.93;5.03;;;;;;;21.68;92.12;100479.16;5070913;28;20032;-69
2023/06/25 08:30:15;;;;;;;5.93;4.60;;;;;;;21.74;92.30;100468.28;5072883;28;20035;-68
2023/06/25 08:32:41;;;;;;;7.32;5.03;;;;;;;21.95;91.68;100486.44;5076349;28;20081;-68
2023/06/25 08:35:07;;;;;;;7.93;5.18;;;;;;;22.04;91.36;100480.59;5068698;28;20391;-69
2023/06/25 08:37:34;;;;;;;6.47;5.00;;;;;;;22.05;89.97;100470.50;5058620;28;20024;-69
2023/06/25 08:39:59;;;;;;;5.97;5.18;;;;;;;22.24;90.13;100483.38;5083008;28;20468;-69
2023/06/25 08:42:25;;;;;;;6.97;5.07;;;;;;;22.32;89.53;100477.75;5074178;28;20112;-69
2023/06/25 08:44:51;;;;;;;6.70;4.75;;;;;;;22.45;89.39;100487.88;5083667;28;20421;-69
2023/06/25 08:47:19;;;;;;;8.45;6.10;;;;;;;22.55;87.55;100477.41;5075556;28;20101;-69
2023/06/25 08:49:49;;;;;;;8.32;5.53;;;;;;;22.50;83.83;100458.88;5080623;28;20441;-69
2023/06/25 08:52:16;;;;;;;6.65;5.43;;;;;;;22.70;82.85;100473.41;5080703;28;20517;-70
2023/06/25 08:54:43;;;;;;;7.95;4.93;;;;;;;22.80;81.57;100475.75;5064234;28;20028;-70
2023/06/25 08:57:09;;;;;;;7.28;4.82;;;;;;;22.82;81.32;100474.47;5065638;28;20040;-69
2023/06/25 08:59:36;;;;;;;6.50;5.80;;;;;;;22.83;79.93;100473.41;5079565;28;20060;-68
2023/06/25 09:02:01;;;;;;;7.57;5.07;;;;;;;22.92;80.02;100469.44;5080358;28;20047;-70
2023/06/25 09:04:26;;;;;;;6.47;4.72;;;;;;;22.88;81.18;100454.50;5077677;28;20013;-69
2023/06/25 09:06:52;;;;;;;6.13;3.97;;;;;;;23.14;82.21;100468.16;5079659;28;20069;-70
2023/06/25 09:09:18;;;;;;;5.80;4.97;;;;;;;23.28;82.09;100477.25;5081994;28;20056;-70
2023/06/25 09:11:43;;;;;;;7.75;5.07;;;;;;;23.35;80.48;100472.59;5078840;28;20044;-69
2023/06/25 09:14:09;;;;;;;6.78;4.53;;;;;;;23.41;79.53;100471.75;5068378;28;20028;-70
2023/06/25 09:16:47;;;;;;;5.55;4.95;;;;;;;23.51;79.31;100469.41;5083518;28;20083;-70
2023/06/25 09:19:19;;;;;;;5.30;4.80;;;;;;;23.52;77.96;100455.50;5072753;28;20042;-70
2023/06/25 09:21:46;;;;;;;7.03;4.72;;;;;;;23.68;78.23;100476.09;5076847;28;20124;-69
2023/06/25 09:24:13;;;;;;;5.32;4.45;;;;;;;23.71;78.57;100464.72;5067777;28;20040;-70
2023/06/25 09:26:59;;;;;;;7.32;5.13;;;;;;;23.72;78.32;100460.91;5074946;28;20040;-71
2023/06/25 09:29:25;;;;;;;8.43;4.57;;;;;;;23.66;77.28;100445.31;5080113;28;20376;-69
2023/06/25 09:31:50;;;;;;;9.32;5.15;;;;;;;23.77;76.70;100469.34;5082569;28;20035;-69
2023/06/25 09:34:17;;;;;;;4.90;4.40;;;;;;;23.80;76.28;100456.03;5084112;28;20039;-69
2023/06/25 09:36:44;;;;;;;5.88;4.28;;;;;;;23.85;76.02;100461.72;5078369;28;20118;-70
2023/06/25 09:39:11;;;;;;;4.88;4.05;;;;;;;23.93;76.16;100452.41;5075108;28;20036;-68
2023/06/25 09:41:40;;;;;;;5.65;4.55;;;;;;;23.94;76.82;100451.38;5066922;28;20017;-69
2023/06/25 09:44:06;;;;;;;5.25;4.45;;;;;;;23.90;76.52;100431.75;5079312;28;20395;-69
2023/06/25 09:46:34;;;;;;;6.57;5.00;;;;;;;24.01;76.64;100439.31;5071141;28;20036;-69
2023/06/25 09:49:01;;;;;;;6.03;4.32;;;;;;;24.01;76.39;100441.22;5072222;28;20125;-69
2023/06/25 09:51:33;;;;;;;6.10;4.55;;;;;;;24.11;75.87;100445.19;5072923;28;20024;-72
2023/06/25 09:54:03;;;;;;;5.38;4.38;;;;;;;24.13;73.91;100443.06;5074412;28;20033;-69
2023/06/25 09:56:31;;;;;;;6.65;3.83;;;;;;;24.15;73.45;100440.94;5085738;28;20515;-70
2023/06/25 09:58:57;;;;;;;5.00;4.47;;;;;;;24.18;71.66;100435.00;5061440;28;20675;-69
2023/06/25 10:01:24;;;;;;;6.78;4.32;;;;;;;24.13;69.89;100423.03;5083108;28;20024;-70
2023/06/25 10:03:49;;;;;;;4.80;3.60;;;;;;;24.27;68.81;100432.84;5075833;28;20051;-68
2023/06/25 10:06:15;;;;;;;5.53;3.75;;;;;;;24.35;69.01;100440.81;5078201;28;20020;-70
2023/06/25 10:08:40;;;;;;;5.47;3.80;;;;;;;24.41;68.84;100438.03;5070715;28;20786;-70
2023/06/25 10:11:06;;;;;;;4.72;3.88;;;;;;;24.50;67.32;100444.06;5074114;28;20035;-71
2023/06/25 10:13:32;;;;;;;5.43;3.65;;;;;;;24.55;67.27;100440.69;5080832;28;20036;-69
2023/06/25 10:15:59;;;;;;;3.85;3.13;;;;;;;24.55;66.45;100436.03;5078813;28;20043;-69
2023/06/25 10:18:25;;;;;;;6.18;3.95;;;;;;;24.52;66.24;100441.13;5054157;28;20043;-70
2023/06/25 10:20:55;;;;;;;3.92;3.63;;;;;;;24.37;66.71;100414.84;5075194;28;20044;-70
2023/06/25 10:23:25;;;;;;;5.38;4.00;;;;;;;24.43;66.88;100422.19;5048626;28;20039;-70
2023/06/25 10:25:53;;;;;;;7.20;3.45;;;;;;;24.61;67.19;100431.56;5056642;28;20406;-69
2023/06/25 10:28:19;;;;;;;4.00;3.35;;;;;;;24.64;67.60;100422.91;5085751;28;20032;-69
2023/06/25 10:30:49;;;;;;;5.18;3.25;;;;;;;24.85;66.52;100428.03;5054625;28;20044;-69
2023/06/25 10:33:17;;;;;;;3.58;3.28;;;;;;;24.98;65.94;100428.75;5077946;28;20055;-70
2023/06/25 10:36:05;;;;;;;3.88;3.28;;;;;;;25.04;64.94;100424.25;5070391;28;23078;-69
2023/06/25 10:38:30;;;;;;;3.90;3.60;;;;;;;25.05;65.92;100429.50;5069764;28;20017;-69
2023/06/25 10:40:56;;;;;;;5.38;3.85;;;;;;;25.06;66.01;100424.88;5066312;28;20063;-70
2023/06/25 10:43:21;;;;;;;4.43;3.60;;;;;;;25.04;64.29;100424.25;5048793;28;20498;-70
2023/06/25 10:45:48;;;;;;;3.83;3.17;;;;;;;25.02;63.42;100418.97;5049480;28;20033;-68
2023/06/25 10:48:17;;;;;;;3.25;2.88;;;;;;;25.01;63.69;100409.09;5069791;28;20036;-70
2023/06/25 10:50:42;;;;;;;4.15;3.75;;;;;;;25.02;64.25;100415.41;5075786;28;20050;-69
2023/06/25 10:53:13;;;;;;;4.68;3.45;;;;;;;25.00;64.90;100414.78;5069639;28;20476;-70
2023/06/25 10:55:53;;;;;;;3.97;3.58;;;;;;;24.85;65.06;100381.38;5080740;28;20101;-72
2023/06/25 10:58:21;;;;;;;4.15;3.45;;;;;;;25.06;66.26;100411.16;5064690;28;20060;-69
2023/06/25 11:00:54;;;;;;;4.65;3.83;;;;;;;25.00;64.78;100396.44;5075169;28;20047;-70
2023/06/25 11:03:20;;;;;;;4.63;3.60;;;;;;;25.12;64.50;100407.50;5076503;28;20051;-69
2023/06/25 11:05:46;;;;;;;5.85;4.18;;;;;;;25.20;65.21;100396.22;5080407;28;20036;-70
2023/06/25 11:08:13;;;;;;;7.32;3.40;;;;;;;25.22;65.53;100391.34;5064828;28;20036;-70
2023/06/25 11:10:39;;;;;;;4.88;3.45;;;;;;;25.26;65.49;100400.81;5069464;28;20104;-70
2023/06/25 11:13:08;;;;;;;4.18;3.45;;;;;;;25.32;65.83;100402.69;5075088;28;20051;-70
2023/06/25 11:15:34;;;;;;;5.45;3.70;;;;;;;25.35;65.59;100400.31;5081990;28;20027;-70
2023/06/25 11:18:00;;;;;;;5.18;3.78;;;;;;;25.39;64.79;100389.69;5074193;28;20055;-70